TFM - Tactical Decision Aid
ID: Runway Winds: CIG/VIS Threshold:

KUES - Waukesha Cnty, WI, US

Updated at: 0447 UTC 30 Jun 2022
Latest TAF at: 0308 UTC 30 Jun 2022

TAF Board

Time0435Z 30/05Z 30/06Z 30/07Z 30/08Z 30/09Z 30/10Z 30/11Z 30/12Z 30/13Z 30/14Z 30/15Z 30/16Z 30/17Z>>
Type OBS PRVL PRVL PRVL PRVL PRVL PRVL PRVL PRVL PRVL PRVL PRVL PRVL PRVL
VIS 10 >6 >6 >6 >6 >6 >6 >6 >6 >6 >6 >6 >6 >6
CIG -- -- -- -- -- -- -- -- -- -- -- -- -- --
Cover CLR FEW FEW FEW FEW FEW FEW FEW FEW FEW FEW FEW FEW FEW
FltCat VFR VFR VFR VFR VFR VFR VFR VFR VFR VFR VFR VFR VFR VFR
WX -- -- -- -- -- -- -- -- -- -- -- -- -- --
WDir 160 140 140 140 200 200 200 200 200 220 220 220 220 220
WSpd 7 5 5 5 7 7 7 7 7 12 12 12 12 12
WGst -- -- -- -- -- -- -- -- -- 25 25 25 25 25
WSHgt -- -- -- -- 2000 2000 2000 2000 2000 -- -- -- -- --
WSDir -- -- -- -- 230 230 230 230 230 -- -- -- -- --
WSSpd -- -- -- -- 35 35 35 35 35 -- -- -- -- --
R10/28
XWnd -6 -3 -3 -3 -7 -7 -7 -7 -7 -11 -11 -11 -11 -11
XGst -- -- -- -- -- -- -- -- -- -22 -22 -22 -22 -22
HWnd 4 4 4 4 -1 -1 -1 -1 -1 -6 -6 -6 -6 -6
HGst -- -- -- -- -- -- -- -- -- -12 -12 -12 -12 -12
R18/36
XWnd 3 4 4 4 -2 -2 -2 -2 -2 -7 -7 -7 -7 -7
XGst -- -- -- -- -- -- -- -- -- -14 -14 -14 -14 -14
HWnd 6 4 4 4 7 7 7 7 7 10 10 10 10 10
HGst -- -- -- -- -- -- -- -- -- 20 20 20 20 20

TDA Impact Legend

  None Marginal Slight Moderate High
Visibility (sm) >5 2.9≤X≤5 0.9≤X<2.9 <0.9
Ceiling (100 ft) >30 9.9≤X≤30 4.9≤X<9.9 <4.9
Wind Speed (kt) <15 15≤X<25 25≤X<30 ≥30
Wind Gust (kt) <15 15≤X<25 25≤X<35 ≥35
Weather No Wx Reported VCTS -TS,-FZRA TS,FZRA +TS,+FZRA
TAF
KUES 300308Z 3003/3024 12007KT P6SM SKC
  FM300400 14005KT P6SM FEW250
  FM300800 20007KT P6SM FEW250 WS020/23035KT
  FM301300 22012G25KT P6SM FEW250


METAR
KUES 300435Z AUTO 16007KT 10SM CLR 16/15 A3012 RMK AO2
KUES 300415Z AUTO 16006KT 10SM CLR 16/15 A3012 RMK AO2
KUES 300355Z AUTO 16004KT 10SM CLR 16/14 A3012 RMK AO2
KUES 300335Z AUTO 13003KT 10SM CLR 16/14 A3012 RMK AO2
KUES 300315Z AUTO 12005KT 10SM CLR 17/14 A3013 RMK AO2
KUES 300255Z AUTO 12006KT 10SM CLR 17/14 A3013 RMK AO2
KUES 300235Z AUTO 12006KT 10SM CLR 17/14 A3013 RMK AO2
KUES 300145Z 11006KT 10SM CLR 18/14 A3013

Radar Display
Forecast Discussion